createdAt,value
2023-02-01T00:02:01.308Z,9.90
2023-02-01T00:04:30.063Z,9.50
2023-02-01T00:06:58.753Z,10.10
2023-02-01T00:09:27.067Z,9.90
2023-02-01T00:11:55.560Z,10.10
2023-02-01T00:14:25.156Z,9.90
2023-02-01T00:16:53.186Z,10.10
2023-02-01T00:19:21.433Z,10.20
2023-02-01T00:21:50.121Z,10.20
2023-02-01T00:24:18.437Z,10.20
2023-02-01T00:26:50.622Z,9.70
2023-02-01T00:29:21.247Z,10.00
2023-02-01T00:31:52.038Z,9.70
2023-02-01T00:34:23.510Z,10.00
2023-02-01T00:36:53.380Z,10.20
2023-02-01T00:39:24.176Z,9.70
2023-02-01T00:42:09.861Z,9.70
2023-02-01T00:44:41.955Z,10.10
2023-02-01T00:47:13.611Z,10.20
2023-02-01T00:50:18.443Z,10.10
2023-02-01T00:53:06.663Z,9.80
2023-02-01T01:00:14.723Z,10.10
2023-02-01T01:02:45.957Z,9.80
2023-02-01T01:05:24.443Z,10.30
2023-02-01T01:07:56.754Z,9.80
2023-02-01T01:10:32.630Z,10.10
2023-02-01T01:13:07.400Z,10.10
2023-02-01T01:15:40.869Z,10.10
2023-02-01T01:18:16.130Z,9.80
2023-02-01T01:20:50.004Z,9.80
2023-02-01T01:23:18.340Z,10.10
2023-02-01T01:25:47.338Z,10.20
2023-02-01T01:28:16.788Z,10.40
2023-02-01T01:35:24.144Z,9.80
2023-02-01T01:38:01.271Z,9.80
2023-02-01T01:40:32.898Z,10.10
2023-02-01T01:43:03.188Z,9.90
2023-02-01T01:45:37.279Z,10.20
2023-02-01T01:48:11.996Z,10.10
2023-02-01T01:50:51.277Z,10.00
2023-02-01T01:56:52.558Z,9.80
2023-02-01T02:03:59.161Z,9.70
2023-02-01T08:59:09.094Z,10.20
2023-02-01T09:01:38.884Z,10.20
2023-02-01T09:04:08.279Z,10.40
2023-02-01T09:06:40.874Z,10.00
2023-02-01T09:09:09.883Z,10.30
2023-02-01T09:11:42.123Z,10.40
2023-02-01T09:14:12.391Z,10.20
2023-02-01T09:16:41.639Z,10.30
2023-02-01T09:19:27.304Z,10.70
2023-02-01T09:22:03.511Z,10.70
2023-02-01T09:24:33.915Z,10.70
2023-02-01T09:27:05.201Z,10.70
2023-02-01T09:29:37.849Z,10.70
2023-02-01T09:32:09.823Z,10.60
2023-02-01T09:34:37.505Z,10.90
2023-02-01T09:37:05.105Z,10.80
2023-02-01T09:39:33.105Z,10.80
2023-02-01T09:42:30.259Z,10.80
2023-02-01T09:45:16.864Z,11.10
2023-02-01T09:47:51.050Z,10.90
2023-02-01T09:50:23.677Z,11.00
2023-02-01T09:53:18.345Z,10.90
2023-02-01T09:55:51.725Z,10.90
2023-02-01T09:58:28.930Z,11.20
2023-02-01T10:01:02.304Z,11.20
2023-02-01T10:03:37.214Z,11.00
2023-02-01T10:06:34.351Z,11.00
2023-02-01T10:09:10.525Z,11.00
2023-02-01T10:11:56.994Z,11.00
2023-02-01T10:14:59.399Z,10.80
2023-02-01T10:18:06.187Z,11.10
2023-02-01T10:20:53.620Z,11.20
2023-02-01T10:23:34.431Z,11.20
2023-02-01T10:26:23.672Z,11.20
2023-02-01T10:28:55.195Z,11.20
2023-02-01T10:31:27.292Z,11.20
2023-02-01T10:34:02.022Z,11.00
2023-02-01T10:36:37.425Z,11.30
2023-02-01T10:39:08.884Z,11.50
2023-02-01T10:41:40.292Z,11.30
2023-02-01T10:44:14.473Z,11.60
2023-02-01T10:46:46.349Z,11.40
2023-02-01T10:49:23.381Z,11.60
2023-02-01T10:52:12.114Z,11.60
2023-02-01T10:54:40.886Z,11.50
2023-02-01T10:57:30.599Z,11.50
2023-02-01T11:00:02.751Z,11.50
2023-02-01T11:02:37.294Z,11.60
2023-02-01T11:05:13.426Z,11.60
2023-02-01T11:07:49.656Z,11.80
2023-02-01T11:10:42.051Z,11.80
2023-02-01T11:13:18.193Z,11.60
2023-02-01T11:15:47.655Z,11.60
2023-02-01T11:18:18.856Z,11.60
2023-02-01T11:20:53.075Z,11.80
2023-02-01T11:23:24.693Z,11.60
2023-02-01T11:25:56.475Z,11.80
2023-02-01T11:28:35.119Z,11.80
2023-02-01T11:31:11.186Z,11.60
2023-02-01T11:33:44.326Z,11.60
2023-02-01T11:36:16.808Z,11.60
2023-02-01T11:38:53.682Z,11.70
2023-02-01T11:41:23.478Z,11.70
2023-02-01T11:44:00.009Z,11.70
2023-02-01T11:46:34.055Z,11.70
2023-02-01T11:49:22.998Z,12.00
2023-02-01T11:52:19.723Z,12.00
2023-02-01T11:55:17.654Z,11.60
2023-02-01T11:58:19.771Z,11.80
2023-02-01T12:00:59.277Z,11.90
2023-02-01T12:04:00.806Z,11.90
2023-02-01T12:06:55.768Z,11.90
2023-02-01T12:10:01.964Z,11.90
2023-02-01T12:12:35.510Z,11.90
2023-02-01T12:15:22.131Z,11.90
2023-02-01T12:18:14.985Z,11.90
2023-02-01T12:21:07.614Z,12.00
2023-02-01T12:24:02.215Z,12.00
2023-02-01T12:26:51.555Z,12.20
2023-02-01T12:29:40.560Z,12.00
2023-02-01T12:32:31.381Z,12.00
2023-02-01T12:35:33.535Z,12.10
2023-02-01T12:38:07.043Z,12.10
2023-02-01T12:40:52.996Z,12.10
2023-02-01T12:43:29.510Z,12.10
2023-02-01T12:45:59.470Z,12.10
2023-02-01T12:48:55.946Z,12.20
2023-02-01T12:51:28.616Z,12.20
2023-02-01T12:54:20.634Z,12.30
2023-02-01T12:57:03.922Z,12.30
2023-02-01T12:59:39.304Z,12.30
2023-02-01T13:02:50.139Z,12.30
2023-02-01T13:05:29.904Z,12.30
2023-02-01T13:08:31.842Z,12.50
2023-02-01T13:11:17.263Z,12.30
2023-02-01T13:14:07.577Z,12.30
2023-02-01T13:16:44.561Z,12.30
2023-02-01T13:19:21.876Z,12.30
2023-02-01T13:22:10.768Z,12.40
2023-02-01T13:24:53.976Z,12.20
2023-02-01T13:27:23.234Z,12.20
2023-02-01T13:29:56.542Z,12.40
2023-02-01T13:33:50.822Z,12.20
2023-02-01T13:35:50.539Z,12.20
2023-02-01T13:39:02.803Z,12.20
2023-02-01T13:41:42.824Z,12.30
2023-02-01T13:44:21.996Z,12.30
2023-02-01T13:46:58.124Z,12.50
2023-02-01T13:49:31.829Z,12.50
2023-02-01T13:52:04.314Z,12.50
2023-02-01T13:54:38.255Z,12.30
2023-02-01T13:57:27.916Z,12.30
2023-02-01T14:00:24.755Z,12.60
2023-02-01T14:03:01.441Z,12.30
2023-02-01T14:05:30.889Z,12.40
2023-02-01T14:08:07.937Z,12.40
2023-02-01T14:10:53.758Z,12.40
2023-02-01T14:13:33.597Z,12.30
2023-02-01T14:16:05.025Z,12.40
2023-02-01T14:18:39.482Z,12.60
2023-02-01T14:21:31.897Z,12.40
2023-02-01T14:24:12.527Z,12.50
2023-02-01T14:26:59.350Z,12.70
2023-02-01T14:29:39.485Z,12.50
2023-02-01T14:32:24.931Z,12.70
2023-02-01T14:35:00.347Z,12.30
2023-02-01T14:37:37.794Z,12.50
2023-02-01T14:40:21.327Z,12.20
2023-02-01T14:42:52.696Z,12.50
2023-02-01T15:29:30.406Z,12.20
2023-02-01T15:31:58.106Z,12.30
2023-02-01T15:37:36.411Z,12.30
2023-02-01T15:40:25.052Z,12.00
2023-02-01T15:44:14.397Z,12.30
2023-02-01T15:46:51.621Z,12.00
2023-02-01T15:49:26.077Z,12.50
2023-02-01T15:51:55.420Z,12.30
2023-02-01T15:54:58.068Z,12.30
2023-02-01T15:57:37.265Z,12.20
2023-02-01T16:01:24.096Z,12.40
2023-02-01T16:04:15.148Z,12.20
2023-02-01T16:09:54.416Z,12.20
2023-02-01T16:12:47.602Z,12.10
2023-02-01T16:15:16.015Z,12.10
2023-02-01T16:17:44.788Z,12.20
2023-02-01T16:20:12.888Z,12.40
2023-02-01T16:22:40.942Z,12.20
2023-02-01T16:25:12.374Z,12.10
2023-02-01T16:27:43.626Z,11.70
2023-02-01T16:30:41.298Z,11.80
2023-02-01T16:33:20.907Z,12.00
2023-02-01T16:54:24.419Z,11.80
2023-02-01T16:56:53.082Z,11.80
2023-02-01T16:59:21.001Z,11.80
2023-02-01T17:01:48.388Z,12.00
2023-02-01T17:04:17.476Z,11.80
2023-02-01T17:06:48.109Z,11.70
2023-02-01T17:09:15.784Z,11.70
2023-02-01T17:11:43.297Z,11.70
2023-02-01T17:14:22.336Z,11.70
2023-02-01T17:16:51.242Z,11.70
2023-02-01T17:19:24.594Z,11.70
2023-02-01T17:21:56.617Z,11.70
2023-02-01T17:24:33.272Z,11.70
2023-02-01T17:27:06.773Z,11.80
2023-02-01T17:29:34.140Z,11.80
2023-02-01T17:32:04.373Z,12.00
2023-02-01T17:34:33.220Z,11.80
2023-02-01T17:37:06.322Z,11.80
2023-02-01T17:39:52.464Z,11.90
2023-02-01T17:42:19.810Z,12.00
2023-02-01T17:44:47.291Z,11.60
2023-02-01T17:47:14.662Z,11.60
2023-02-01T17:49:42.391Z,11.60
2023-02-01T17:52:16.414Z,11.60
2023-02-01T17:54:43.864Z,11.50
2023-02-01T17:57:14.637Z,11.50
2023-02-01T17:59:42.035Z,11.50
2023-02-01T18:02:24.667Z,11.50
2023-02-01T18:04:52.488Z,11.50
2023-02-01T18:07:19.944Z,11.50
2023-02-01T18:09:47.557Z,11.50
2023-02-01T18:12:21.930Z,11.50
2023-02-01T18:14:49.464Z,11.50
2023-02-01T18:17:17.008Z,11.50
2023-02-01T18:19:44.590Z,11.50
2023-02-01T18:22:22.694Z,11.50
2023-02-01T18:24:50.397Z,11.50
2023-02-01T18:27:17.798Z,11.50
2023-02-01T18:29:45.493Z,11.50
2023-02-01T18:32:15.863Z,11.50
2023-02-01T18:34:43.282Z,11.50
2023-02-01T18:37:10.617Z,11.50
2023-02-01T18:39:39.357Z,11.50
2023-02-01T18:42:10.158Z,11.40
2023-02-01T18:44:37.935Z,11.40
2023-02-01T18:47:05.263Z,11.40
2023-02-01T18:49:32.834Z,11.40
2023-02-01T18:52:00.773Z,11.30
2023-02-01T18:54:37.081Z,11.30
2023-02-01T18:57:21.637Z,11.30
2023-02-01T18:59:49.095Z,11.20
2023-02-01T19:02:16.620Z,11.20
2023-02-01T19:04:44.047Z,11.10
2023-02-01T19:07:11.517Z,11.10
2023-02-01T19:09:38.938Z,11.10
2023-02-01T19:12:06.513Z,11.10
2023-02-01T19:14:34.481Z,11.10
2023-02-01T19:17:02.016Z,10.80
2023-02-01T19:19:30.677Z,11.10
2023-02-01T19:21:58.068Z,11.10
2023-02-01T19:24:28.036Z,11.10
2023-02-01T19:26:56.681Z,11.30
2023-02-01T19:29:24.727Z,11.10
2023-02-01T19:31:52.649Z,11.40
2023-02-01T19:34:19.950Z,11.10
2023-02-01T19:36:48.151Z,11.10
2023-02-01T19:39:15.893Z,11.00
2023-02-01T19:41:44.280Z,11.00
2023-02-01T19:44:11.865Z,11.00
2023-02-01T19:46:39.253Z,11.00
2023-02-01T19:49:11.928Z,11.00
2023-02-01T19:51:40.936Z,11.00
2023-02-01T19:54:11.595Z,11.00
2023-02-01T19:56:40.186Z,11.00
2023-02-01T19:59:08.314Z,11.00
2023-02-01T20:01:37.232Z,11.00
2023-02-01T20:04:06.490Z,11.00
2023-02-01T20:06:39.044Z,11.00
2023-02-01T20:09:06.859Z,11.00
2023-02-01T20:11:34.712Z,11.30
2023-02-01T20:14:02.173Z,11.00
2023-02-01T20:16:29.627Z,11.20
2023-02-01T20:18:57.286Z,10.90
2023-02-01T20:21:24.811Z,10.90
2023-02-01T20:23:52.212Z,10.90
2023-02-01T20:26:25.407Z,10.90
2023-02-01T20:28:55.802Z,10.90
2023-02-01T20:31:25.116Z,10.80
2023-02-01T20:33:52.816Z,10.80
2023-02-01T20:36:20.652Z,10.80
2023-02-01T20:38:48.074Z,11.10
2023-02-01T20:41:15.546Z,10.80
2023-02-01T20:43:45.417Z,10.80
2023-02-01T20:46:13.376Z,10.80
2023-02-01T20:48:48.999Z,10.80
2023-02-01T20:51:19.601Z,10.80
2023-02-01T20:53:48.545Z,10.80
2023-02-01T20:56:16.280Z,10.80
2023-02-01T20:58:44.289Z,10.80
2023-02-01T21:01:12.464Z,10.80
2023-02-01T21:03:40.080Z,10.80
2023-02-01T21:06:08.537Z,10.80
2023-02-01T21:08:36.181Z,10.80
2023-02-01T21:11:10.306Z,10.90
2023-02-01T21:13:42.998Z,10.70
2023-02-01T21:16:12.758Z,10.70
2023-02-01T21:18:40.641Z,10.80
2023-02-01T21:21:10.684Z,10.70
2023-02-01T21:23:44.797Z,10.70
2023-02-01T21:26:17.531Z,10.70
2023-02-01T21:28:45.611Z,10.60
2023-02-01T21:31:15.091Z,10.70
2023-02-01T21:33:43.327Z,10.70
2023-02-01T21:36:19.008Z,10.70
2023-02-01T21:38:51.459Z,10.70
2023-02-01T21:41:39.535Z,10.70
2023-02-01T21:44:07.745Z,10.70
2023-02-01T21:46:35.262Z,10.70
2023-02-01T21:49:04.392Z,10.70
2023-02-01T21:51:35.340Z,10.80
2023-02-01T21:54:02.761Z,10.90
2023-02-01T21:56:30.092Z,10.70
2023-02-01T21:58:57.572Z,10.70
2023-02-01T22:01:26.261Z,11.00
2023-02-01T22:03:53.973Z,10.80
2023-02-01T22:06:26.949Z,11.00
2023-02-01T22:08:54.735Z,10.80
2023-02-01T22:11:23.266Z,10.80
2023-02-01T22:13:51.973Z,10.80
2023-02-01T22:16:21.557Z,10.80
2023-02-01T22:18:50.913Z,11.10
2023-02-01T22:21:19.030Z,10.80
2023-02-01T22:23:54.310Z,10.80
2023-02-01T22:26:22.864Z,10.80
2023-02-01T22:28:50.545Z,10.80
2023-02-01T22:31:18.831Z,10.80
2023-02-01T22:33:47.775Z,10.90
2023-02-01T22:36:18.465Z,11.10
2023-02-01T22:38:47.551Z,11.10
2023-02-01T22:41:15.130Z,11.10
2023-02-01T22:43:42.945Z,10.90
2023-02-01T22:46:31.161Z,10.90
2023-02-01T22:48:59.341Z,10.90
2023-02-01T22:51:29.623Z,11.20
2023-02-01T22:53:57.885Z,11.00
2023-02-01T22:56:36.728Z,11.00
2023-02-01T22:59:10.575Z,11.00
2023-02-01T23:01:38.272Z,11.10
2023-02-01T23:04:07.329Z,11.00
2023-02-01T23:06:35.073Z,11.10
2023-02-01T23:09:11.808Z,11.10
2023-02-01T23:11:39.941Z,11.10
2023-02-01T23:14:07.959Z,11.10
2023-02-01T23:16:35.484Z,11.10
2023-02-01T23:19:04.031Z,11.10
2023-02-01T23:21:32.091Z,11.10
2023-02-01T23:24:01.371Z,11.20
2023-02-01T23:26:30.982Z,11.30
2023-02-01T23:28:59.832Z,11.30
2023-02-01T23:31:32.652Z,11.10
2023-02-01T23:34:02.166Z,11.10
2023-02-01T23:36:30.833Z,11.10
2023-02-01T23:38:58.851Z,11.10
2023-02-01T23:41:30.188Z,11.10
2023-02-01T23:43:57.875Z,11.10
2023-02-01T23:46:30.456Z,11.40
2023-02-01T23:48:58.447Z,11.10
2023-02-01T23:51:26.600Z,11.20
2023-02-01T23:53:54.791Z,11.20
2023-02-01T23:56:25.768Z,11.20
2023-02-01T23:58:54.217Z,11.20
